Time;durP1;ratioP1;P1;durP2;ratioP2;P2;SDS_P1;SDS_P2;PMS_P1;PMS_P2;Temp;Humidity;BMP_temperature;BMP_pressure;BME280_temperature;BME280_humidity;BME280_pressure;Samples;Min_cycle;Max_cycle;Signal;HPM_P1;HPM_P2
2021/01/27 00:00:20;;;;;;;9.05;3.80;;;;;;;-1.56;100.00;96352.78;989207;30;20031;-57
2021/01/27 00:00:51;;;;;;;8.63;3.25;;;;;;;-1.59;100.00;96351.16;978307;30;20028;-56
2021/01/27 00:01:26;;;;;;;7.55;3.10;;;;;;;-1.61;100.00;96353.03;981883;30;20035;-56
2021/01/27 00:01:56;;;;;;;6.88;3.28;;;;;;;-1.61;100.00;96347.00;989243;30;20035;-56
2021/01/27 00:02:27;;;;;;;6.18;2.92;;;;;;;-1.58;100.00;96352.88;996781;29;20413;-56
2021/01/27 00:02:59;;;;;;;9.20;3.28;;;;;;;-1.55;100.00;96354.44;981899;30;20115;-56
2021/01/27 00:03:30;;;;;;;7.10;2.92;;;;;;;-1.53;100.00;96343.00;993104;29;20035;-56
2021/01/27 00:04:01;;;;;;;5.53;2.85;;;;;;;-1.54;100.00;96340.50;992832;29;20031;-56
2021/01/27 00:04:33;;;;;;;6.35;2.88;;;;;;;-1.50;100.00;96355.00;981843;30;20042;-56
2021/01/27 00:05:05;;;;;;;6.05;2.80;;;;;;;-1.50;100.00;96349.78;981963;30;20480;-57
2021/01/27 00:05:39;;;;;;;5.45;3.05;;;;;;;-1.51;100.00;96342.91;992938;29;20039;-57
2021/01/27 00:06:10;;;;;;;6.53;3.33;;;;;;;-1.50;100.00;96352.38;992897;29;20034;-58
2021/01/27 00:06:41;;;;;;;4.70;2.88;;;;;;;-1.50;100.00;96344.56;990306;29;20376;-57
2021/01/27 00:07:12;;;;;;;7.93;3.05;;;;;;;-1.46;100.00;96345.22;989648;30;20091;-57
2021/01/27 00:07:43;;;;;;;5.47;2.90;;;;;;;-1.50;100.00;96341.16;986293;30;20116;-57
2021/01/27 00:08:13;;;;;;;6.63;3.30;;;;;;;-1.49;100.00;96333.25;986543;30;20439;-57
2021/01/27 00:08:44;;;;;;;7.60;2.63;;;;;;;-1.46;100.00;96343.47;986135;30;20067;-57
2021/01/27 00:09:15;;;;;;;9.52;3.50;;;;;;;-1.46;100.00;96335.66;982853;30;20036;-55
2021/01/27 00:09:46;;;;;;;4.78;2.90;;;;;;;-1.44;100.00;96340.78;982617;30;20082;-56
2021/01/27 00:10:17;;;;;;;7.78;3.42;;;;;;;-1.43;100.00;96338.09;982599;30;20106;-56
2021/01/27 00:10:48;;;;;;;4.95;2.97;;;;;;;-1.44;100.00;96341.63;986489;30;20122;-55
2021/01/27 00:11:19;;;;;;;7.65;3.10;;;;;;;-1.43;100.00;96332.88;986785;30;20047;-57
2021/01/27 00:11:50;;;;;;;7.72;3.00;;;;;;;-1.41;100.00;96332.78;986700;30;20419;-55
2021/01/27 00:12:21;;;;;;;5.82;3.17;;;;;;;-1.41;100.00;96330.16;993563;29;20031;-55
2021/01/27 00:12:52;;;;;;;4.65;2.85;;;;;;;-1.40;100.00;96339.66;986223;30;20088;-57
2021/01/27 00:13:22;;;;;;;9.15;3.05;;;;;;;-1.45;100.00;96326.91;982717;30;20031;-57
2021/01/27 00:13:53;;;;;;;6.25;2.92;;;;;;;-1.46;100.00;96337.41;978978;30;20401;-55
2021/01/27 00:14:24;;;;;;;9.02;3.10;;;;;;;-1.46;100.00;96333.06;986614;30;20421;-56
2021/01/27 00:14:55;;;;;;;9.95;3.15;;;;;;;-1.42;100.00;96333.72;986309;30;20495;-55
2021/01/27 00:15:28;;;;;;;5.75;3.05;;;;;;;-1.41;100.00;96337.97;982657;30;20032;-55
2021/01/27 00:15:59;;;;;;;7.63;3.10;;;;;;;-1.43;100.00;96338.09;990105;30;20031;-55
2021/01/27 00:16:30;;;;;;;7.47;2.97;;;;;;;-1.44;100.00;96328.59;989917;30;20533;-55
2021/01/27 00:17:00;;;;;;;6.28;3.28;;;;;;;-1.44;100.00;96331.19;986594;30;20023;-55
2021/01/27 00:17:31;;;;;;;6.30;3.10;;;;;;;-1.44;100.00;96327.78;985879;30;20024;-55
2021/01/27 00:18:02;;;;;;;5.80;2.60;;;;;;;-1.44;100.00;96336.41;986317;30;20428;-55
2021/01/27 00:18:33;;;;;;;6.50;2.75;;;;;;;-1.43;100.00;96322.47;989953;30;20122;-55
2021/01/27 00:19:04;;;;;;;5.55;3.28;;;;;;;-1.40;100.00;96324.88;982513;30;20107;-55
2021/01/27 00:19:35;;;;;;;7.25;2.95;;;;;;;-1.39;100.00;96325.72;986354;30;20031;-55
2021/01/27 00:20:08;;;;;;;10.30;2.97;;;;;;;-1.42;100.00;96323.28;982722;30;20030;-55
2021/01/27 00:20:39;;;;;;;5.72;2.95;;;;;;;-1.45;100.00;96324.31;982608;30;20484;-55
2021/01/27 00:21:09;;;;;;;6.35;3.22;;;;;;;-1.44;100.00;96322.56;989796;30;20027;-55
2021/01/27 00:21:40;;;;;;;6.57;3.10;;;;;;;-1.43;100.00;96325.06;982673;30;20039;-55
2021/01/27 00:22:11;;;;;;;5.65;2.92;;;;;;;-1.45;100.00;96313.06;982631;30;20031;-55
2021/01/27 00:22:42;;;;;;;6.15;2.78;;;;;;;-1.44;100.00;96317.34;982834;30;20039;-54
2021/01/27 00:23:13;;;;;;;7.07;3.05;;;;;;;-1.40;100.00;96309.22;993304;29;20023;-55
2021/01/27 00:23:43;;;;;;;5.15;3.10;;;;;;;-1.44;100.00;96310.38;989847;30;20465;-55
2021/01/27 00:24:14;;;;;;;7.32;3.13;;;;;;;-1.45;100.00;96306.06;986297;30;20028;-55
2021/01/27 00:24:45;;;;;;;6.95;3.00;;;;;;;-1.44;100.00;96312.97;971702;30;20052;-55
2021/01/27 00:25:17;;;;;;;5.28;2.90;;;;;;;-1.46;100.00;96312.22;978856;30;20174;-55
2021/01/27 00:25:51;;;;;;;6.07;3.13;;;;;;;-1.49;100.00;96307.19;989950;29;20035;-55
2021/01/27 00:26:21;;;;;;;8.38;2.95;;;;;;;-1.48;100.00;96308.03;990079;30;20600;-55
2021/01/27 00:26:52;;;;;;;8.10;3.10;;;;;;;-1.53;100.00;96298.75;983181;30;20131;-57
2021/01/27 00:27:23;;;;;;;5.93;2.88;;;;;;;-1.45;100.00;96306.06;986086;30;20032;-56
2021/01/27 00:27:54;;;;;;;5.53;3.10;;;;;;;-1.45;100.00;96307.84;989873;30;20082;-56
2021/01/27 00:28:25;;;;;;;8.35;3.40;;;;;;;-1.46;100.00;96301.81;986228;30;20039;-56
2021/01/27 00:28:56;;;;;;;7.05;3.03;;;;;;;-1.44;100.00;96304.31;993675;29;20557;-55
2021/01/27 00:29:27;;;;;;;6.65;3.40;;;;;;;-1.46;100.00;96307.03;986183;30;20172;-55
2021/01/27 00:29:58;;;;;;;6.82;3.47;;;;;;;-1.48;100.00;96300.22;989945;30;20049;-55
2021/01/27 00:30:31;;;;;;;7.15;2.95;;;;;;;-1.47;100.00;96294.91;993749;29;20034;-55
2021/01/27 00:31:02;;;;;;;6.80;3.67;;;;;;;-1.49;100.00;96298.56;989846;30;20114;-55
2021/01/27 00:31:33;;;;;;;5.55;2.83;;;;;;;-1.45;100.00;96305.25;971640;30;20038;-54
2021/01/27 00:32:04;;;;;;;8.00;3.30;;;;;;;-1.45;100.00;96308.69;990106;30;20421;-54
2021/01/27 00:32:35;;;;;;;8.63;3.45;;;;;;;-1.48;100.00;96303.69;990088;30;20027;-55
2021/01/27 00:33:06;;;;;;;5.90;3.10;;;;;;;-1.46;100.00;96309.63;982404;30;20519;-55
2021/01/27 00:33:37;;;;;;;6.22;3.00;;;;;;;-1.54;100.00;96299.66;997191;29;20111;-54
2021/01/27 00:34:08;;;;;;;7.93;3.30;;;;;;;-1.46;100.00;96307.03;990003;30;20039;-54
2021/01/27 00:34:39;;;;;;;6.25;2.92;;;;;;;-1.48;100.00;96306.28;982706;30;20032;-55
2021/01/27 00:35:11;;;;;;;6.10;3.50;;;;;;;-1.47;100.00;96305.34;986194;30;20111;-55
2021/01/27 00:35:45;;;;;;;6.65;3.15;;;;;;;-1.45;100.00;96306.06;989802;30;20027;-55
2021/01/27 00:36:16;;;;;;;6.68;3.03;;;;;;;-1.45;100.00;96305.25;991354;29;20111;-54
2021/01/27 00:36:49;;;;;;;4.90;2.88;;;;;;;-1.44;100.00;96307.75;989233;30;20030;-55
2021/01/27 00:37:21;;;;;;;8.70;3.38;;;;;;;-1.43;100.00;96306.84;989635;30;20535;-54
2021/01/27 00:37:53;;;;;;;6.15;3.15;;;;;;;-1.43;100.00;96311.19;986262;30;20115;-54
2021/01/27 00:38:26;;;;;;;7.25;3.08;;;;;;;-1.44;100.00;96299.94;997314;29;20108;-58
2021/01/27 00:38:57;;;;;;;5.30;2.72;;;;;;;-1.44;100.00;96299.94;996787;29;20485;-54
2021/01/27 00:39:28;;;;;;;5.05;2.88;;;;;;;-1.46;100.00;96306.16;993830;29;20026;-55
2021/01/27 00:39:58;;;;;;;6.22;3.20;;;;;;;-1.47;100.00;96302.72;986177;30;20042;-55
2021/01/27 00:40:29;;;;;;;6.70;3.25;;;;;;;-1.49;100.00;96298.56;989930;29;20483;-54
2021/01/27 00:41:00;;;;;;;5.63;3.10;;;;;;;-1.45;100.00;96297.44;986259;30;20024;-54
2021/01/27 00:41:31;;;;;;;10.60;3.92;;;;;;;-1.53;100.00;96296.13;982564;30;20460;-55
2021/01/27 00:42:02;;;;;;;5.47;2.78;;;;;;;-1.46;100.00;96304.41;978823;30;20119;-55
2021/01/27 00:42:34;;;;;;;5.20;3.08;;;;;;;-1.43;100.00;96308.59;971693;30;20417;-54
2021/01/27 00:43:04;;;;;;;8.40;3.13;;;;;;;-1.43;100.00;96304.25;986246;30;20028;-55
2021/01/27 00:43:36;;;;;;;8.50;3.42;;;;;;;-1.44;100.00;96302.56;993330;29;20030;-55
2021/01/27 00:44:07;;;;;;;6.93;3.05;;;;;;;-1.49;100.00;96299.38;986274;30;20123;-54
2021/01/27 00:44:38;;;;;;;5.90;2.95;;;;;;;-1.46;100.00;96301.81;982472;30;20024;-55
2021/01/27 00:45:09;;;;;;;7.70;3.10;;;;;;;-1.46;100.00;96307.03;982585;30;20028;-55
2021/01/27 00:45:40;;;;;;;12.27;3.50;;;;;;;-1.47;100.00;96304.50;978740;30;20477;-54
2021/01/27 00:46:11;;;;;;;10.40;4.50;;;;;;;-1.54;100.00;96291.84;978951;30;20233;-55
2021/01/27 00:46:42;;;;;;;5.65;2.90;;;;;;;-1.48;100.00;96302.81;993681;29;20054;-54
2021/01/27 00:47:12;;;;;;;6.78;3.13;;;;;;;-1.49;100.00;96302.00;993650;29;20105;-55
2021/01/27 00:47:43;;;;;;;8.38;3.03;;;;;;;-1.49;100.00;96302.00;985955;30;20034;-55
2021/01/27 00:48:14;;;;;;;6.47;3.08;;;;;;;-1.57;100.00;96283.38;993629;29;20181;-56
2021/01/27 00:48:48;;;;;;;5.75;2.80;;;;;;;-1.50;100.00;96292.50;993492;29;20030;-57
2021/01/27 00:49:23;;;;;;;9.20;2.92;;;;;;;-1.45;100.00;96305.25;986250;30;20444;-56
2021/01/27 00:49:55;;;;;;;5.35;3.30;;;;;;;-1.45;100.00;96305.25;985906;30;20072;-56
2021/01/27 00:50:26;;;;;;;7.65;3.08;;;;;;;-1.45;100.00;96295.66;993607;29;20026;-56
2021/01/27 00:50:57;;;;;;;9.52;3.38;;;;;;;-1.45;100.00;96303.47;986170;30;20447;-56
2021/01/27 00:51:28;;;;;;;8.48;3.33;;;;;;;-1.48;100.00;96298.47;986305;30;20031;-57
2021/01/27 00:51:59;;;;;;;7.20;2.97;;;;;;;-1.48;100.00;96306.28;985776;30;20061;-56
2021/01/27 00:52:30;;;;;;;10.15;3.30;;;;;;;-1.47;100.00;96300.13;983120;30;20090;-57
2021/01/27 00:53:01;;;;;;;9.60;3.28;;;;;;;-1.45;100.00;96298.25;986180;30;20047;-56
2021/01/27 00:53:32;;;;;;;8.05;2.90;;;;;;;-1.43;100.00;96304.25;986115;30;20016;-57
2021/01/27 00:54:03;;;;;;;8.65;3.05;;;;;;;-1.44;100.00;96299.13;993426;29;20034;-56
2021/01/27 00:54:33;;;;;;;6.72;2.97;;;;;;;-1.45;100.00;96298.25;993516;29;20406;-56
2021/01/27 00:55:15;;;;;;;5.05;2.65;;;;;;;-1.46;100.00;96300.97;989832;29;20054;-56
2021/01/27 00:55:46;;;;;;;8.00;3.25;;;;;;;-1.49;100.00;96290.75;989966;30;20023;-55
2021/01/27 00:56:18;;;;;;;5.88;2.78;;;;;;;-1.48;100.00;96292.41;991379;29;20038;-56
2021/01/27 00:56:48;;;;;;;6.80;2.90;;;;;;;-1.47;100.00;96294.09;997245;29;20101;-55
2021/01/27 00:57:19;;;;;;;9.18;3.03;;;;;;;-1.49;100.00;96296.78;982373;30;20020;-54
2021/01/27 00:57:50;;;;;;;6.40;3.13;;;;;;;-1.48;100.00;96297.63;978953;30;20033;-55
2021/01/27 00:58:21;;;;;;;6.93;2.92;;;;;;;-1.48;100.00;96295.88;989709;30;20038;-57
2021/01/27 00:58:52;;;;;;;4.90;2.85;;;;;;;-1.45;100.00;96297.44;989798;30;20027;-55
2021/01/27 00:59:23;;;;;;;6.03;2.90;;;;;;;-1.46;100.00;96299.22;986313;30;20360;-55
2021/01/27 00:59:54;;;;;;;6.22;3.22;;;;;;;-1.50;100.00;96295.09;993449;29;20027;-56
2021/01/27 01:00:28;;;;;;;5.85;3.00;;;;;;;-1.52;100.00;96303.00;993463;29;20026;-56
2021/01/27 01:00:59;;;;;;;4.97;2.65;;;;;;;-1.50;100.00;96299.47;989753;30;20027;-56
2021/01/27 01:01:31;;;;;;;6.70;3.30;;;;;;;-1.50;100.00;96302.09;989944;30;20023;-56
2021/01/27 01:02:01;;;;;;;7.15;3.38;;;;;;;-1.54;100.00;96302.25;993595;29;20414;-57
2021/01/27 01:02:38;;;;;;;5.65;3.08;;;;;;;-1.53;100.00;96301.34;986134;30;20031;-56
2021/01/27 01:03:10;;;;;;;8.20;3.00;;;;;;;-1.54;100.00;96298.84;989845;30;20063;-57
2021/01/27 01:03:41;;;;;;;8.88;3.00;;;;;;;-1.53;100.00;96303.13;986179;30;20019;-57
2021/01/27 01:04:12;;;;;;;7.68;3.10;;;;;;;-1.54;100.00;96301.44;989976;30;20023;-56
2021/01/27 01:04:43;;;;;;;5.65;2.97;;;;;;;-1.52;100.00;96308.22;985854;30;20039;-56
2021/01/27 01:05:16;;;;;;;5.03;2.88;;;;;;;-1.51;100.00;96303.84;989962;30;20024;-56
2021/01/27 01:05:48;;;;;;;6.00;3.28;;;;;;;-1.56;100.00;96304.13;993444;29;20027;-54
2021/01/27 01:06:19;;;;;;;6.78;3.42;;;;;;;-1.59;100.00;96306.06;986229;30;20032;-54
2021/01/27 01:06:50;;;;;;;5.97;3.50;;;;;;;-1.60;100.00;96304.41;985935;30;20027;-56
2021/01/27 01:07:20;;;;;;;8.02;3.22;;;;;;;-1.60;100.00;96302.66;997229;29;20022;-57
2021/01/27 01:07:51;;;;;;;7.47;3.55;;;;;;;-1.59;100.00;96306.06;986220;30;20099;-57
2021/01/27 01:08:22;;;;;;;6.00;3.05;;;;;;;-1.59;100.00;96296.50;986228;30;20117;-58
2021/01/27 01:08:54;;;;;;;6.85;3.17;;;;;;;-1.61;100.00;96307.94;989590;30;20055;-57
2021/01/27 01:09:24;;;;;;;7.60;3.15;;;;;;;-1.61;100.00;96302.75;978798;30;20063;-57
2021/01/27 01:09:55;;;;;;;6.00;2.67;;;;;;;-1.63;100.00;96305.44;982491;30;20055;-57
2021/01/27 01:10:28;;;;;;;7.78;3.20;;;;;;;-1.61;100.00;96300.13;989853;30;20031;-57
2021/01/27 01:11:00;;;;;;;7.07;3.35;;;;;;;-1.62;100.00;96301.06;993337;29;20117;-58
2021/01/27 01:11:31;;;;;;;7.30;3.17;;;;;;;-1.62;100.00;96301.06;989836;30;20036;-54
2021/01/27 01:12:03;;;;;;;5.18;2.80;;;;;;;-1.60;100.00;96299.19;993539;29;20474;-54
2021/01/27 01:12:34;;;;;;;7.35;2.63;;;;;;;-1.59;100.00;96295.66;993729;29;20027;-54
2021/01/27 01:13:06;;;;;;;7.22;3.22;;;;;;;-1.63;100.00;96294.19;985913;30;20019;-56
2021/01/27 01:13:36;;;;;;;6.13;2.55;;;;;;;-1.67;100.00;96297.88;982485;30;20044;-55
2021/01/27 01:14:07;;;;;;;5.15;2.70;;;;;;;-1.68;100.00;96294.44;986193;30;20055;-55
2021/01/27 01:14:38;;;;;;;7.97;3.25;;;;;;;-1.66;100.00;96292.59;993758;29;20180;-55
2021/01/27 01:15:09;;;;;;;7.32;3.17;;;;;;;-1.68;100.00;96289.25;989571;30;20023;-55
2021/01/27 01:15:40;;;;;;;5.40;3.10;;;;;;;-1.77;100.00;96297.63;982430;30;20136;-57
2021/01/27 01:16:11;;;;;;;7.35;3.10;;;;;;;-1.78;100.00;96291.56;993500;29;20183;-58
2021/01/27 01:16:42;;;;;;;5.50;2.97;;;;;;;-1.79;100.00;96282.09;989847;30;20031;-57
2021/01/27 01:17:13;;;;;;;7.60;2.92;;;;;;;-1.78;100.00;96288.13;989601;30;20023;-55
2021/01/27 01:17:44;;;;;;;6.15;3.13;;;;;;;-1.81;100.00;96275.28;985714;30;20024;-57
2021/01/27 01:18:15;;;;;;;5.88;2.90;;;;;;;-1.82;100.00;96284.88;989084;30;20038;-58
2021/01/27 01:18:46;;;;;;;6.57;3.20;;;;;;;-1.82;100.00;96281.44;989682;30;20054;-57
2021/01/27 01:19:17;;;;;;;6.18;2.80;;;;;;;-1.83;100.00;96282.34;985763;30;20028;-58
2021/01/27 01:19:48;;;;;;;7.18;3.08;;;;;;;-1.84;100.00;96285.91;993547;29;20027;-58
2021/01/27 01:20:19;;;;;;;5.60;2.85;;;;;;;-1.88;100.00;96290.44;993581;29;20105;-55
2021/01/27 01:20:50;;;;;;;6.22;3.10;;;;;;;-1.90;100.00;96292.28;986234;30;20028;-54
2021/01/27 01:21:21;;;;;;;9.73;3.55;;;;;;;-1.88;100.00;96300.88;989524;30;20382;-55
2021/01/27 01:21:52;;;;;;;4.95;2.97;;;;;;;-1.91;100.00;96301.03;982536;30;20025;-55
2021/01/27 01:22:25;;;;;;;7.25;3.33;;;;;;;-1.97;100.00;96304.00;986078;30;20089;-54
2021/01/27 01:22:57;;;;;;;7.03;3.03;;;;;;;-2.00;100.00;96306.75;989922;30;20470;-54
2021/01/27 01:23:28;;;;;;;6.75;3.17;;;;;;;-2.00;100.00;96305.03;982733;30;20021;-57
2021/01/27 01:23:59;;;;;;;9.25;3.67;;;;;;;-2.00;100.00;96301.56;993522;29;20034;-55
2021/01/27 01:24:30;;;;;;;5.97;3.50;;;;;;;-2.05;100.00;96303.63;989731;30;20176;-57
2021/01/27 01:25:01;;;;;;;4.90;2.90;;;;;;;-2.05;100.00;96301.84;978882;30;20029;-57
2021/01/27 01:25:32;;;;;;;8.52;3.28;;;;;;;-2.10;100.00;96302.09;989474;30;20270;-55
2021/01/27 01:26:03;;;;;;;7.47;3.63;;;;;;;-2.11;100.00;96303.06;986102;30;20032;-57
2021/01/27 01:26:35;;;;;;;6.20;3.10;;;;;;;-2.10;100.00;96299.50;982410;30;20036;-57
2021/01/27 01:27:06;;;;;;;8.48;3.30;;;;;;;-2.09;100.00;96292.53;989766;30;20027;-56
2021/01/27 01:27:37;;;;;;;8.80;3.72;;;;;;;-2.10;100.00;96301.28;985753;30;20322;-56
2021/01/27 01:28:08;;;;;;;6.95;3.15;;;;;;;-2.10;100.00;96296.91;986031;30;20028;-56
2021/01/27 01:28:39;;;;;;;7.32;3.38;;;;;;;-2.16;100.00;96296.41;978734;30;20477;-56
2021/01/27 01:29:09;;;;;;;6.10;3.10;;;;;;;-2.16;100.00;96294.66;982334;30;20034;-56
2021/01/27 01:29:40;;;;;;;5.70;3.13;;;;;;;-2.19;100.00;96297.44;982173;30;20032;-56
2021/01/27 01:30:15;;;;;;;6.75;3.20;;;;;;;-2.20;100.00;96295.75;982327;30;20108;-57
2021/01/27 01:30:47;;;;;;;4.75;2.90;;;;;;;-2.19;100.00;96294.84;986046;30;20105;-57
2021/01/27 01:31:17;;;;;;;6.10;2.78;;;;;;;-2.23;100.00;96297.69;982455;30;20033;-56
2021/01/27 01:31:48;;;;;;;8.02;3.15;;;;;;;-2.25;100.00;96292.59;986583;30;20040;-55
2021/01/27 01:32:19;;;;;;;6.07;3.03;;;;;;;-2.31;100.00;96285.16;978801;30;20135;-56
2021/01/27 01:32:50;;;;;;;6.32;3.10;;;;;;;-2.29;100.00;96285.91;989813;30;20035;-56
2021/01/27 01:33:26;;;;;;;6.20;3.47;;;;;;;-2.34;100.00;96277.53;1000956;29;20033;-58
2021/01/27 01:33:57;;;;;;;7.50;3.42;;;;;;;-2.27;100.00;96284.88;993445;29;20256;-56
2021/01/27 01:34:28;;;;;;;7.63;3.05;;;;;;;-2.28;100.00;96284.97;989669;30;20110;-56
2021/01/27 01:34:59;;;;;;;8.88;2.97;;;;;;;-2.30;100.00;96286.81;989829;30;20108;-56
2021/01/27 01:35:30;;;;;;;9.43;2.92;;;;;;;-2.31;100.00;96283.38;993442;29;20129;-56
2021/01/27 01:36:01;;;;;;;11.25;4.63;;;;;;;-2.31;100.00;96287.75;978577;30;20037;-56
2021/01/27 01:36:31;;;;;;;7.47;3.33;;;;;;;-2.35;100.00;96287.09;989693;30;20039;-56
2021/01/27 01:37:02;;;;;;;10.40;4.57;;;;;;;-2.38;100.00;96286.44;989709;30;20035;-55
2021/01/27 01:37:35;;;;;;;6.10;3.53;;;;;;;-2.39;100.00;96285.56;989632;30;20091;-55
2021/01/27 01:38:06;;;;;;;4.78;3.10;;;;;;;-2.39;100.00;96282.16;982266;30;20133;-56
2021/01/27 01:38:38;;;;;;;6.05;3.15;;;;;;;-2.40;100.00;96272.66;986009;30;20031;-56
2021/01/27 01:39:09;;;;;;;7.95;3.50;;;;;;;-2.39;100.00;96279.53;989723;30;20768;-56
2021/01/27 01:39:40;;;;;;;9.40;2.78;;;;;;;-2.41;100.00;96276.19;997140;29;20026;-57
2021/01/27 01:40:17;;;;;;;6.57;3.28;;;;;;;-2.44;100.00;96276.38;989589;30;20479;-57
2021/01/27 01:40:49;;;;;;;5.18;3.20;;;;;;;-2.47;100.00;96273.03;986148;30;20028;-57
2021/01/27 01:41:20;;;;;;;7.10;3.47;;;;;;;-2.48;100.00;96273.94;984839;30;20262;-56
2021/01/27 01:41:51;;;;;;;6.40;3.40;;;;;;;-2.50;100.00;96274.97;986008;30;20691;-57
2021/01/27 01:42:22;;;;;;;6.18;3.22;;;;;;;-2.52;100.00;96269.84;986439;30;20272;-57
2021/01/27 01:43:03;;;;;;;7.40;3.17;;;;;;;-2.54;100.00;96271.72;985945;30;20539;-56
2021/01/27 01:43:36;;;;;;;8.35;3.30;;;;;;;-2.56;100.00;96265.75;994852;29;20418;-55
2021/01/27 01:44:07;;;;;;;7.85;3.65;;;;;;;-2.57;100.00;96266.69;993281;29;20037;-57
2021/01/27 01:44:38;;;;;;;6.43;2.70;;;;;;;-2.60;100.00;96266.84;987696;30;20100;-56
2021/01/27 01:45:29;;;;;;;5.93;2.67;;;;;;;-2.61;100.00;96270.38;981991;30;20214;-57
2021/01/27 01:46:02;;;;;;;6.18;2.88;;;;;;;-2.63;100.00;96271.38;985917;30;20034;-57
2021/01/27 01:46:33;;;;;;;4.80;3.13;;;;;;;-2.62;100.00;96265.28;985905;30;20036;-56
2021/01/27 01:47:04;;;;;;;6.45;3.20;;;;;;;-2.62;100.00;96268.69;985983;30;20815;-55
2021/01/27 01:47:35;;;;;;;7.15;3.03;;;;;;;-2.63;100.00;96266.19;971418;30;20260;-55
2021/01/27 01:48:16;;;;;;;7.43;3.28;;;;;;;-2.59;100.00;96262.50;978952;30;20048;-57
2021/01/27 01:48:50;;;;;;;8.15;3.33;;;;;;;-2.58;100.00;96258.97;985450;30;20074;-57
2021/01/27 01:49:21;;;;;;;8.00;2.80;;;;;;;-2.61;100.00;96257.38;993573;29;20268;-56
2021/01/27 01:49:53;;;;;;;7.15;3.20;;;;;;;-2.67;100.00;96250.75;991453;29;20341;-56
2021/01/27 01:50:24;;;;;;;6.97;2.83;;;;;;;-2.67;100.00;96255.13;989615;30;20064;-55
2021/01/27 01:51:15;;;;;;;8.20;3.30;;;;;;;-2.67;100.00;96255.94;989523;30;20277;-56
2021/01/27 01:51:50;;;;;;;6.25;3.25;;;;;;;-2.66;100.00;96249.00;988824;30;20035;-57
2021/01/27 01:52:21;;;;;;;6.07;3.20;;;;;;;-2.66;100.00;96255.03;986010;30;20345;-56
2021/01/27 01:52:53;;;;;;;5.80;3.03;;;;;;;-2.67;100.00;96249.94;993281;29;20277;-57
2021/01/27 01:53:24;;;;;;;7.28;3.20;;;;;;;-2.66;100.00;96254.22;989671;30;20511;-59
2021/01/27 01:53:57;;;;;;;7.47;3.08;;;;;;;-2.67;100.00;96249.94;989646;30;20273;-56
2021/01/27 01:54:34;;;;;;;6.60;3.03;;;;;;;-2.70;100.00;96250.09;993261;29;20041;-57
2021/01/27 01:55:06;;;;;;;7.72;3.40;;;;;;;-2.78;100.00;96234.94;993446;29;20525;-56
2021/01/27 01:55:36;;;;;;;7.10;3.00;;;;;;;-2.72;100.00;96247.56;985939;30;20110;-56
2021/01/27 01:56:09;;;;;;;6.30;2.90;;;;;;;-2.72;100.00;96244.16;989688;30;20638;-57
2021/01/27 01:56:41;;;;;;;7.70;3.35;;;;;;;-2.77;100.00;96235.78;985824;30;20493;-56
2021/01/27 01:57:22;;;;;;;7.18;3.33;;;;;;;-2.76;100.00;96240.06;974835;30;20260;-56
2021/01/27 01:57:53;;;;;;;7.22;3.47;;;;;;;-2.77;100.00;96239.22;989740;30;20269;-56
2021/01/27 01:58:24;;;;;;;8.55;3.17;;;;;;;-2.78;100.00;96234.13;985944;30;20274;-58
2021/01/27 01:58:57;;;;;;;6.65;3.20;;;;;;;-2.77;100.00;96234.03;989342;30;20344;-57
2021/01/27 01:59:29;;;;;;;6.75;3.42;;;;;;;-2.78;100.00;96237.56;985967;30;20448;-57
2021/01/27 02:00:03;;;;;;;4.55;2.95;;;;;;;-2.80;100.00;96230.75;986035;30;20020;-55
2021/01/27 02:00:34;;;;;;;8.48;2.80;;;;;;;-2.82;100.00;96228.25;978663;30;20354;-57
2021/01/27 02:01:05;;;;;;;9.00;3.15;;;;;;;-2.83;100.00;96228.34;985754;30;20028;-56
2021/01/27 02:01:37;;;;;;;6.97;3.10;;;;;;;-2.89;100.00;96230.38;989633;30;20095;-56
2021/01/27 02:02:08;;;;;;;8.82;3.20;;;;;;;-2.87;100.00;96230.28;986023;30;20106;-57
2021/01/27 02:02:39;;;;;;;6.13;3.20;;;;;;;-2.98;100.00;96217.03;978664;30;20346;-56
2021/01/27 02:03:11;;;;;;;8.80;3.13;;;;;;;-2.91;100.00;96227.03;982470;30;20092;-57
2021/01/27 02:03:43;;;;;;;5.55;3.10;;;;;;;-2.93;100.00;96231.44;986016;30;20027;-57
2021/01/27 02:04:14;;;;;;;7.65;3.33;;;;;;;-2.96;100.00;96222.97;979295;30;20271;-56
2021/01/27 02:04:51;;;;;;;5.72;3.10;;;;;;;-3.00;100.00;96222.31;982242;30;20274;-57
2021/01/27 02:05:24;;;;;;;6.70;2.85;;;;;;;-3.04;100.00;96226.03;976227;30;20044;-56
2021/01/27 02:05:56;;;;;;;6.85;3.10;;;;;;;-3.07;100.00;96229.63;985914;30;20800;-57
2021/01/27 02:06:27;;;;;;;6.63;2.90;;;;;;;-3.08;100.00;96229.72;985978;30;20682;-56
2021/01/27 02:06:58;;;;;;;5.00;2.53;;;;;;;-3.07;100.00;96227.03;978465;30;20342;-57
2021/01/27 02:07:29;;;;;;;8.73;3.08;;;;;;;-3.09;100.00;96234.06;993257;29;20023;-56
2021/01/27 02:08:00;;;;;;;8.75;3.20;;;;;;;-3.11;100.00;96233.31;993410;29;20478;-56
2021/01/27 02:08:31;;;;;;;7.88;3.47;;;;;;;-3.12;100.00;96234.22;993527;29;20284;-57
2021/01/27 02:09:03;;;;;;;9.50;3.30;;;;;;;-3.14;100.00;96235.25;985704;30;20289;-57
2021/01/27 02:09:34;;;;;;;8.05;2.80;;;;;;;-3.14;100.00;96235.25;982233;30;20266;-57
2021/01/27 02:10:06;;;;;;;6.13;3.00;;;;;;;-3.18;100.00;96237.19;982269;30;20749;-57
2021/01/27 02:10:37;;;;;;;6.97;3.17;;;;;;;-3.19;100.00;96243.28;989679;30;20307;-55
2021/01/27 02:11:10;;;;;;;6.90;3.55;;;;;;;-3.23;100.00;96240.00;993232;29;20351;-56
2021/01/27 02:11:51;;;;;;;8.85;3.60;;;;;;;-3.25;100.00;96238.44;996461;29;20105;-57
2021/01/27 02:12:41;;;;;;;6.88;3.50;;;;;;;-3.28;100.00;96239.44;991441;29;20249;-56
2021/01/27 02:13:23;;;;;;;5.93;3.33;;;;;;;-3.30;100.00;96237.84;993283;29;20310;-56
2021/01/27 02:14:13;;;;;;;7.97;3.35;;;;;;;-3.34;100.00;96244.16;991015;29;20328;-56
2021/01/27 02:14:55;;;;;;;8.18;3.15;;;;;;;-3.36;100.00;96240.78;993450;29;20700;-56
2021/01/27 02:15:45;;;;;;;10.55;3.45;;;;;;;-3.43;100.00;96238.53;993213;29;20272;-56
2021/01/27 02:16:26;;;;;;;8.15;4.03;;;;;;;-3.43;100.00;96241.13;989704;30;20264;-57
2021/01/27 02:17:09;;;;;;;10.68;3.45;;;;;;;-3.46;100.00;96237.84;989704;29;20267;-58
2021/01/27 02:17:54;;;;;;;8.35;3.30;;;;;;;-3.52;100.00;96239.00;989345;30;20305;-57
2021/01/27 02:18:29;;;;;;;8.05;3.15;;;;;;;-3.57;100.00;96238.44;989604;30;20430;-57
2021/01/27 02:19:10;;;;;;;10.13;4.05;;;;;;;-3.56;100.00;96241.88;985863;30;20292;-57
2021/01/27 02:19:44;;;;;;;4.70;2.80;;;;;;;-3.62;100.00;96241.28;985837;30;20261;-57
2021/01/27 02:20:44;;;;;;;9.07;3.40;;;;;;;-3.69;100.00;96229.53;990615;29;20261;-57
2021/01/27 02:21:26;;;;;;;6.65;2.92;;;;;;;-3.73;100.00;96228.00;985911;30;20265;-56
2021/01/27 02:22:07;;;;;;;6.35;3.17;;;;;;;-3.70;100.00;96240.84;978588;30;20267;-57
2021/01/27 02:22:48;;;;;;;8.55;3.05;;;;;;;-3.70;100.00;96242.59;978606;30;20264;-57
2021/01/27 02:23:32;;;;;;;6.72;3.45;;;;;;;-3.73;100.00;96238.38;989497;30;20260;-58
2021/01/27 02:24:13;;;;;;;7.53;3.15;;;;;;;-3.75;100.00;96240.22;996918;29;20256;-57
2021/01/27 02:24:50;;;;;;;7.15;3.20;;;;;;;-3.77;100.00;96241.25;982297;30;20304;-56
2021/01/27 02:25:41;;;;;;;7.40;3.53;;;;;;;-3.77;100.00;96242.06;974936;30;20260;-57
2021/01/27 02:26:19;;;;;;;7.68;3.33;;;;;;;-3.80;100.00;96242.22;985791;30;20780;-57
2021/01/27 02:26:59;;;;;;;5.43;3.08;;;;;;;-3.81;100.00;96236.22;982215;30;20335;-55
2021/01/27 02:27:42;;;;;;;8.18;3.55;;;;;;;-3.83;100.00;96240.66;982013;30;20280;-56
2021/01/27 02:28:26;;;;;;;7.70;3.22;;;;;;;-3.85;100.00;96239.03;989559;30;20091;-55
2021/01/27 02:29:01;;;;;;;7.10;3.03;;;;;;;-3.88;100.00;96234.03;974915;30;20298;-56
2021/01/27 02:29:51;;;;;;;6.32;3.40;;;;;;;-3.92;100.00;96233.31;981803;30;20285;-55
2021/01/27 02:30:33;;;;;;;7.85;3.60;;;;;;;-3.95;100.00;96236.09;985812;30;20257;-57
2021/01/27 02:31:15;;;;;;;10.35;3.65;;;;;;;-3.96;100.00;96231.00;985770;30;20265;-56
2021/01/27 02:32:07;;;;;;;6.47;3.20;;;;;;;-4.00;100.00;96231.16;989590;30;20273;-57
2021/01/27 02:32:47;;;;;;;6.47;3.25;;;;;;;-4.03;100.00;96230.47;993736;29;20287;-56
2021/01/27 02:33:38;;;;;;;11.15;3.35;;;;;;;-4.04;100.00;96232.25;993045;29;20256;-57
2021/01/27 02:34:20;;;;;;;6.90;2.95;;;;;;;-4.08;100.00;96232.47;989439;30;20261;-56
2021/01/27 02:35:10;;;;;;;11.00;3.83;;;;;;;-4.10;100.00;96231.72;974796;30;20291;-58
2021/01/27 02:35:45;;;;;;;8.13;3.50;;;;;;;-4.11;100.00;96230.88;985696;30;20331;-57
2021/01/27 02:36:26;;;;;;;7.85;3.33;;;;;;;-4.12;100.00;96230.97;996870;29;20301;-54